Monday, December 18, 2017, 5:42 AM EST
Back to Local

KMMK, Meriden Markham Municipal Airport

Location: Meriden, CT, United States Lat: 41.517
Local Time: 5:42 AM EST (10:42 GMT) Lon: -72.833
Time Zone: US/Eastern Elev: 101 ft

Show me the last for .
Show Decoded

2017-12-18 04:53 METAR KMMK 180953Z AUTO 00000KT 10SM OVC023 M02/M11 A3018 RMK AO2 SLP221
                 T10221111 =
2017-12-18 03:53 METAR KMMK 180853Z AUTO 03003KT 10SM OVC023 M02/M12 A3018 RMK AO2 SLP223
                 T10221117 58009 =
2017-12-18 02:53 METAR KMMK 180753Z AUTO 36003KT 10SM OVC022 M02/M11 A3021 RMK AO2 SLP231
                 T10221111 =
2017-12-18 01:53 METAR KMMK 180653Z AUTO 00000KT 10SM OVC023 M02/M12 A3021 RMK AO2 SLP232
                 T10221117 =
2017-12-18 00:53 METAR KMMK 180553Z AUTO 00000KT 10SM OVC025 M02/M12 A3021 RMK AO2 SLP232
                 T10221117 11017 21028 58014 =
2017-12-18 00:39 METAR KMMK 180539Z AUTO 01004KT 10SM BKN025 BKN070 M02/M11 A3021 RMK AO2
                 T10221111 =
2017-12-17 23:53 METAR KMMK 180453Z AUTO 00000KT 10SM OVC070 M02/M11 A3022 RMK AO2 SLP235
                 T10171111 400001133 =
2017-12-17 22:53 METAR KMMK 180353Z AUTO 00000KT 10SM BKN065 BKN085 OVC110 M02/M07 A3025 RMK AO2
                 SLP244 T10221067 =
2017-12-17 21:53 METAR KMMK 180253Z AUTO 00000KT 10SM OVC080 M02/M08 A3025 RMK AO2 SLP245
                 T10221078 58009 =
2017-12-17 20:53 METAR KMMK 180153Z AUTO 00000KT 10SM OVC100 M02/M08 A3027 RMK AO2 SLP253
                 T10221083 =
2017-12-17 19:53 METAR KMMK 180053Z AUTO 00000KT 10SM FEW120 M02/M09 A3028 RMK AO2 SLP257
                 T10221089 =
2017-12-17 18:53 METAR KMMK 172353Z AUTO 00000KT 10SM FEW120 M03/M08 A3028 RMK AO2 SLP256
                 T10281083 10000 21033 53013 =
2017-12-17 17:53 METAR KMMK 172253Z AUTO 00000KT 10SM CLR M03/M09 A3026 RMK AO2 SLP249 T10281089
                 =
2017-12-17 16:53 METAR KMMK 172153Z AUTO 00000KT 10SM CLR M01/M12 A3025 RMK AO2 SLP247 T10111122
                 =
2017-12-17 15:53 METAR KMMK 172053Z AUTO 36003KT 10SM CLR M01/M13 A3024 RMK AO2 SLP243 T10061133
                 56005 =
2017-12-17 14:53 METAR KMMK 171953Z AUTO 34004KT 10SM CLR M01/M13 A3024 RMK AO2 SLP243 T10061133
                 =
2017-12-17 13:53 METAR KMMK 171853Z AUTO 35003KT 10SM CLR 00/M13 A3023 RMK AO2 SLP240 T00001128 =
2017-12-17 12:53 METAR KMMK 171753Z AUTO 31007KT 10SM OVC065 00/M13 A3026 RMK AO2 SLP248
                 T00001133 10000 21133 56016 =
2017-12-17 11:53 METAR KMMK 171653Z AUTO 33009KT 10SM FEW080 M01/M13 A3026 RMK AO2 SLP251
                 T10111133 =
2017-12-17 10:53 METAR KMMK 171553Z AUTO 34007KT 10SM CLR M02/M12 A3029 RMK AO2 SLP259 T10171117
                 =
2017-12-17 09:53 METAR KMMK 171453Z AUTO 33005KT 10SM BKN090 M02/M11 A3031 RMK AO2 SLP264
                 T10221106 52009 =
2017-12-17 08:53 METAR KMMK 171353Z AUTO 01003KT 10SM BKN100 M07/M09 A3029 RMK AO2 SLP261
                 T10671094 =
2017-12-17 07:53 METAR KMMK 171253Z AUTO 00000KT 10SM CLR M11/M12 A3029 RMK AO2 SLP260 T11061122
                 =
2017-12-17 06:53 METAR KMMK 171153Z AUTO 30003KT 10SM CLR M12/M13 A3028 RMK AO2 SLP256 I1000
                 I6000 T11171133 11089 21133 50004 =
2017-12-17 05:53 METAR KMMK 171053Z AUTO 00000KT 10SM CLR M12/M14 A3028 RMK AO2 SLP257 I1000
                 T11171139 =

Support USWX by starting your Amazon purchase here.